Terminal Aerodrome Forecast
Issued by NWS

Current Version | Previous Version | Text Only | Print | Product List | Glossary On
Versions: 1 2 3 4 5 6 7 8 9 10 11 12 13
395
FTPA31 PHFO 192340
TAFHJH
TAF
PHJH 192340Z 2000/2024 03018G28KT P6SM VCSH FEW025 SCT040 BKN200
     FM200500 03015G23KT P6SM SCT035 BKN200
     FM201900 04020G30KT P6SM FEW035
      AMD NOT SKED AFT 200400=

USA.gov is the U.S. government's official web portal to all federal, state and local government web resources and services.